createdAt,value
2022-08-03T00:00:24.363Z,16.96
2022-08-03T00:03:26.457Z,16.94
2022-08-03T00:06:28.251Z,16.86
2022-08-03T00:09:35.957Z,16.81
2022-08-03T00:12:37.816Z,16.75
2022-08-03T00:15:41.166Z,16.71
2022-08-03T00:18:43.117Z,16.71
2022-08-03T00:21:44.810Z,16.75
2022-08-03T00:24:46.546Z,16.72
2022-08-03T00:27:48.546Z,16.75
2022-08-03T00:30:52.759Z,16.76
2022-08-03T00:33:59.493Z,16.76
2022-08-03T00:37:04.934Z,16.75
2022-08-03T00:40:07.178Z,16.77
2022-08-03T00:43:09.429Z,16.74
2022-08-03T00:46:11.230Z,16.71
2022-08-03T00:49:13.065Z,16.74
2022-08-03T00:52:15.755Z,16.72
2022-08-03T00:55:17.621Z,16.66
2022-08-03T00:58:19.543Z,16.65
2022-08-03T01:01:21.314Z,16.62
2022-08-03T01:04:23.134Z,16.56
2022-08-03T01:07:49.903Z,16.52
2022-08-03T01:11:17.378Z,16.47
2022-08-03T01:14:26.374Z,16.45
2022-08-03T01:17:47.264Z,16.41
2022-08-03T01:20:53.566Z,16.36
2022-08-03T01:23:58.410Z,16.35
2022-08-03T01:27:05.963Z,16.33
2022-08-03T01:30:10.872Z,16.29
2022-08-03T01:33:28.683Z,16.32
2022-08-03T01:36:34.349Z,16.33
2022-08-03T01:39:37.998Z,16.32
2022-08-03T01:42:41.387Z,16.28
2022-08-03T01:45:43.639Z,16.26
2022-08-03T01:48:45.213Z,16.22
2022-08-03T01:52:03.179Z,16.25
2022-08-03T01:55:07.875Z,16.25
2022-08-03T01:58:10.359Z,16.22
2022-08-03T02:01:13.654Z,16.23
2022-08-03T02:04:17.976Z,16.21
2022-08-03T02:07:19.832Z,16.18
2022-08-03T02:10:23.073Z,16.14
2022-08-03T02:13:36.940Z,16.12
2022-08-03T02:16:38.789Z,16.09
2022-08-03T02:19:41.889Z,16.08
2022-08-03T02:22:44.685Z,16.03
2022-08-03T02:25:50.335Z,15.99
2022-08-03T02:28:53.284Z,16.01
2022-08-03T02:31:58.295Z,15.90
2022-08-03T02:35:00.950Z,15.91
2022-08-03T02:38:04.790Z,15.87
2022-08-03T02:41:08.926Z,15.88
2022-08-03T02:44:12.581Z,15.85
2022-08-03T02:47:15.701Z,15.89
2022-08-03T02:50:19.217Z,15.86
2022-08-03T02:53:22.527Z,15.80
2022-08-03T02:56:25.476Z,15.78
2022-08-03T02:59:27.896Z,15.77
2022-08-03T03:02:30.206Z,15.76
2022-08-03T03:05:56.153Z,15.71
2022-08-03T03:08:59.311Z,15.69
2022-08-03T03:12:02.915Z,15.68
2022-08-03T03:15:08.219Z,15.64
2022-08-03T03:18:10.976Z,15.65
2022-08-03T03:21:13.438Z,15.65
2022-08-03T03:24:15.262Z,15.65
2022-08-03T03:27:16.980Z,15.65
2022-08-03T03:30:19.127Z,15.63
2022-08-03T03:33:22.394Z,15.60
2022-08-03T03:36:24.253Z,15.57
2022-08-03T03:39:26.004Z,15.59
2022-08-03T03:42:27.811Z,15.56
2022-08-03T03:45:31.290Z,15.49
2022-08-03T03:48:33.351Z,15.48
2022-08-03T03:51:35.211Z,15.51
2022-08-03T03:54:41.403Z,15.45
2022-08-03T03:57:43.182Z,15.51
2022-08-03T04:00:45.325Z,15.57
2022-08-03T04:03:47.161Z,15.55
2022-08-03T04:07:07.370Z,15.56
2022-08-03T04:10:33.028Z,15.48
2022-08-03T04:13:44.640Z,15.41
2022-08-03T04:16:54.015Z,15.39
2022-08-03T04:19:56.324Z,15.39
2022-08-03T04:23:00.057Z,15.52
2022-08-03T04:26:03.903Z,15.53
2022-08-03T04:29:06.807Z,15.42
2022-08-03T04:32:09.370Z,15.42
2022-08-03T04:35:11.227Z,15.35
2022-08-03T04:38:16.118Z,15.38
2022-08-03T04:41:18.473Z,15.37
2022-08-03T04:44:22.181Z,15.37
2022-08-03T04:47:32.648Z,15.33
2022-08-03T04:50:34.630Z,15.25
2022-08-03T04:53:39.087Z,15.32
2022-08-03T04:56:41.802Z,15.30
2022-08-03T04:59:43.586Z,15.20
2022-08-03T05:02:46.043Z,15.19
2022-08-03T05:05:50.333Z,15.22
2022-08-03T05:08:52.788Z,15.18
2022-08-03T05:11:54.633Z,15.12
2022-08-03T05:14:56.580Z,15.15
2022-08-03T05:17:58.394Z,15.07
2022-08-03T05:21:01.457Z,15.15
2022-08-03T05:24:03.328Z,15.15
2022-08-03T05:27:05.542Z,15.11
2022-08-03T05:30:29.867Z,15.22
2022-08-03T05:33:31.347Z,15.25
2022-08-03T05:36:33.243Z,15.15
2022-08-03T05:39:35.499Z,15.03
2022-08-03T05:42:37.578Z,15.10
2022-08-03T05:45:39.403Z,15.19
2022-08-03T05:48:42.300Z,15.08
2022-08-03T05:51:44.016Z,15.10
2022-08-03T05:54:57.149Z,15.05
2022-08-03T05:57:59.390Z,15.10
2022-08-03T06:01:01.126Z,15.10
2022-08-03T06:04:02.858Z,15.15
2022-08-03T06:07:04.568Z,15.22
2022-08-03T06:10:36.784Z,15.31
2022-08-03T06:13:28.731Z,15.28
2022-08-03T06:16:30.565Z,15.21
2022-08-03T06:19:32.365Z,15.20
2022-08-03T06:22:34.069Z,15.26
2022-08-03T06:25:35.777Z,15.20
2022-08-03T06:28:52.598Z,15.14
2022-08-03T06:31:55.595Z,15.10
2022-08-03T06:34:57.319Z,15.07
2022-08-03T06:37:59.227Z,15.09
2022-08-03T06:41:02.083Z,15.04
2022-08-03T06:44:04.478Z,15.00
2022-08-03T06:47:06.370Z,15.08
2022-08-03T06:50:17.067Z,15.06
2022-08-03T06:53:21.215Z,15.06
2022-08-03T06:56:23.285Z,15.05
2022-08-03T07:00:07.865Z,15.02
2022-08-03T07:02:47.430Z,15.01
2022-08-03T07:05:49.927Z,15.03
2022-08-03T07:08:54.464Z,15.00
2022-08-03T07:11:58.848Z,15.10
2022-08-03T07:15:02.681Z,15.22
2022-08-03T07:18:05.042Z,15.24
2022-08-03T07:21:08.104Z,15.32
2022-08-03T07:24:09.834Z,15.40
2022-08-03T07:27:11.651Z,15.47
2022-08-03T07:30:14.954Z,15.55
2022-08-03T07:33:16.703Z,15.69
2022-08-03T07:36:18.533Z,15.71
2022-08-03T07:39:20.291Z,15.66
2022-08-03T07:42:23.346Z,15.74
2022-08-03T07:45:26.539Z,15.69
2022-08-03T07:48:28.357Z,15.80
2022-08-03T07:51:30.061Z,15.88
2022-08-03T07:54:32.116Z,15.88
2022-08-03T07:57:34.289Z,15.91
2022-08-03T08:00:36.440Z,15.87
2022-08-03T08:03:41.985Z,15.86
2022-08-03T08:06:54.927Z,15.83
2022-08-03T08:09:56.588Z,15.90
2022-08-03T08:12:58.689Z,15.91
2022-08-03T08:16:00.443Z,15.87
2022-08-03T08:19:02.438Z,15.74
2022-08-03T08:22:04.270Z,15.64
2022-08-03T08:25:07.613Z,15.46
2022-08-03T08:28:31.805Z,15.46
2022-08-03T08:31:30.940Z,15.58
2022-08-03T08:34:32.651Z,15.66
2022-08-03T08:37:34.690Z,15.53
2022-08-03T08:40:36.351Z,15.34
2022-08-03T08:43:38.236Z,15.22
2022-08-03T08:46:40.114Z,15.04
2022-08-03T08:49:49.496Z,14.82
2022-08-03T08:53:04.117Z,14.97
2022-08-03T08:56:05.714Z,15.11
2022-08-03T08:59:07.527Z,15.28
2022-08-03T09:02:09.739Z,15.55
2022-08-03T09:05:13.138Z,15.70
2022-08-03T09:08:14.863Z,15.83
2022-08-03T09:11:16.618Z,15.97
2022-08-03T09:14:39.173Z,15.99
2022-08-03T09:17:41.160Z,16.05
2022-08-03T09:20:42.942Z,16.00
2022-08-03T09:24:01.968Z,15.96
2022-08-03T09:27:12.648Z,15.90
2022-08-03T09:30:33.619Z,15.86
2022-08-03T09:33:47.659Z,15.97
2022-08-03T09:36:50.844Z,16.11
2022-08-03T09:39:52.704Z,16.02
2022-08-03T09:42:57.693Z,15.98
2022-08-03T09:46:04.251Z,16.10
2022-08-03T09:49:12.352Z,16.58
2022-08-03T09:52:31.977Z,16.65
2022-08-03T09:56:36.282Z,16.50
2022-08-03T09:59:29.654Z,16.57
2022-08-03T10:02:31.399Z,16.51
2022-08-03T10:05:33.303Z,16.53
2022-08-03T10:08:35.056Z,16.57
2022-08-03T10:11:41.631Z,16.62
2022-08-03T10:14:45.729Z,16.53
2022-08-03T10:17:47.534Z,16.72
2022-08-03T10:20:53.866Z,16.82
2022-08-03T10:23:57.336Z,16.48
2022-08-03T10:27:04.962Z,16.43
2022-08-03T10:30:09.785Z,16.39
2022-08-03T10:33:50.113Z,16.50
2022-08-03T10:36:47.666Z,16.74
2022-08-03T10:39:56.281Z,16.65
2022-08-03T10:43:04.398Z,16.70
2022-08-03T10:46:07.369Z,16.73
2022-08-03T10:49:15.095Z,16.95
2022-08-03T10:52:33.635Z,17.61
2022-08-03T10:56:03.779Z,17.93
2022-08-03T10:59:08.978Z,18.31
2022-08-03T11:02:14.168Z,18.22
2022-08-03T11:05:26.354Z,18.16
2022-08-03T11:08:29.198Z,18.29
2022-08-03T11:11:31.164Z,18.07
2022-08-03T11:14:46.498Z,17.66
2022-08-03T11:18:11.094Z,17.83
2022-08-03T11:21:13.233Z,17.38
2022-08-03T11:24:36.671Z,17.05
2022-08-03T11:27:38.832Z,16.88
2022-08-03T11:30:41.255Z,16.85
2022-08-03T11:33:43.105Z,16.77
2022-08-03T11:37:20.605Z,16.85
2022-08-03T11:40:40.827Z,16.62
2022-08-03T11:43:46.598Z,16.58
2022-08-03T11:46:48.564Z,16.53
2022-08-03T11:49:51.882Z,16.52
2022-08-03T11:52:54.268Z,16.49
2022-08-03T11:55:59.493Z,16.55
2022-08-03T11:59:20.368Z,16.63
2022-08-03T12:02:23.077Z,16.43
2022-08-03T12:05:40.929Z,16.52
2022-08-03T12:08:44.006Z,16.47
2022-08-03T12:11:59.783Z,16.44
2022-08-03T12:15:03.479Z,16.68
2022-08-03T12:18:16.691Z,16.71
2022-08-03T12:21:18.878Z,16.83
2022-08-03T12:24:20.659Z,16.74
2022-08-03T12:27:27.766Z,16.53
2022-08-03T12:30:29.501Z,16.59
2022-08-03T12:33:31.253Z,16.65
2022-08-03T12:36:34.834Z,16.55
2022-08-03T12:39:36.620Z,16.53
2022-08-03T12:42:58.343Z,16.53
2022-08-03T12:46:18.731Z,16.62
2022-08-03T12:49:20.610Z,16.67
2022-08-03T12:52:23.064Z,16.55
2022-08-03T12:55:27.691Z,16.52
2022-08-03T12:58:35.392Z,16.85
2022-08-03T13:01:37.869Z,16.85
2022-08-03T13:04:54.887Z,16.66
2022-08-03T13:07:56.883Z,17.30
2022-08-03T13:10:58.615Z,17.99
2022-08-03T13:14:00.510Z,18.33
2022-08-03T13:17:02.553Z,17.94
2022-08-03T13:20:04.666Z,17.58
2022-08-03T13:23:06.435Z,18.08
2022-08-03T13:26:13.162Z,18.35
2022-08-03T13:29:14.883Z,18.08
2022-08-03T13:32:16.756Z,17.73
2022-08-03T13:35:18.519Z,17.28
2022-08-03T13:38:21.644Z,17.27
2022-08-03T13:41:31.082Z,17.21
2022-08-03T13:44:33.531Z,17.14
2022-08-03T13:47:35.185Z,17.03
2022-08-03T13:50:42.527Z,16.88
2022-08-03T13:53:44.754Z,16.87
2022-08-03T13:56:59.023Z,16.93
2022-08-03T14:00:27.750Z,16.69
2022-08-03T14:03:30.585Z,16.66
2022-08-03T14:06:32.276Z,16.73
2022-08-03T14:09:34.070Z,16.73
2022-08-03T14:12:35.803Z,16.83
2022-08-03T14:15:38.688Z,16.77
2022-08-03T14:18:42.195Z,16.82
2022-08-03T14:21:45.361Z,16.86
2022-08-03T14:25:09.752Z,16.79
2022-08-03T14:28:11.909Z,16.76
2022-08-03T14:32:10.158Z,16.65
2022-08-03T14:34:35.398Z,16.54
2022-08-03T14:37:37.157Z,16.59
2022-08-03T14:40:39.182Z,16.63
2022-08-03T14:43:40.929Z,16.57
2022-08-03T14:47:02.650Z,16.50
2022-08-03T14:50:36.561Z,16.78
2022-08-03T14:53:28.947Z,16.75
2022-08-03T14:56:30.724Z,16.52
2022-08-03T14:59:55.550Z,16.59
2022-08-03T15:02:54.346Z,17.04
2022-08-03T15:05:57.162Z,17.09
2022-08-03T15:09:23.537Z,17.42
2022-08-03T15:12:21.462Z,17.68
2022-08-03T15:15:23.202Z,17.43
2022-08-03T15:18:24.923Z,17.57
2022-08-03T15:21:46.226Z,17.67
2022-08-03T15:24:48.623Z,17.75
2022-08-03T15:28:02.875Z,18.07
2022-08-03T15:31:06.977Z,18.35
2022-08-03T15:34:08.704Z,18.25
2022-08-03T15:37:10.436Z,19.17
2022-08-03T15:40:18.307Z,20.05
2022-08-03T15:43:21.163Z,19.67
2022-08-03T15:46:30.786Z,18.61
2022-08-03T15:49:32.714Z,18.43
2022-08-03T15:52:36.035Z,19.20
2022-08-03T15:55:37.764Z,19.07
2022-08-03T15:59:03.433Z,19.38
2022-08-03T16:02:01.591Z,19.47
2022-08-03T16:05:03.462Z,19.33
2022-08-03T16:08:09.059Z,18.41
2022-08-03T16:11:13.861Z,17.72
2022-08-03T16:14:34.737Z,17.67
2022-08-03T16:17:38.539Z,17.52
2022-08-03T16:20:40.347Z,17.64
2022-08-03T16:23:47.367Z,17.93
2022-08-03T16:26:49.253Z,18.26
2022-08-03T16:29:51.124Z,17.93
2022-08-03T16:32:54.930Z,17.76
2022-08-03T16:35:56.743Z,17.28
2022-08-03T16:38:58.605Z,17.85
2022-08-03T16:42:01.695Z,17.46
2022-08-03T16:45:08.169Z,17.35
2022-08-03T16:48:10.099Z,17.34
2022-08-03T16:51:11.941Z,17.24
2022-08-03T16:54:15.607Z,17.08
2022-08-03T16:57:55.911Z,17.09
2022-08-03T17:00:43.200Z,17.02
2022-08-03T17:04:02.534Z,17.04
2022-08-03T17:07:11.385Z,16.98
2022-08-03T17:10:14.787Z,16.97
2022-08-03T17:13:39.599Z,16.94
2022-08-03T17:16:52.701Z,16.98
2022-08-03T17:19:56.807Z,17.00
2022-08-03T17:23:19.219Z,16.83
2022-08-03T17:26:40.783Z,16.54
2022-08-03T17:29:49.589Z,16.38
2022-08-03T17:32:56.784Z,16.31
2022-08-03T17:35:59.902Z,16.38
2022-08-03T17:39:04.491Z,16.42
2022-08-03T17:42:29.457Z,16.41
2022-08-03T17:45:52.587Z,16.43
2022-08-03T17:48:56.920Z,16.77
2022-08-03T17:52:02.977Z,16.58
2022-08-03T17:55:56.778Z,16.44
2022-08-03T17:58:52.378Z,16.59
2022-08-03T18:02:29.858Z,16.69
2022-08-03T18:06:11.136Z,16.79
2022-08-03T18:09:04.944Z,16.55
2022-08-03T18:12:12.018Z,16.36
2022-08-03T18:15:21.163Z,16.31
2022-08-03T18:18:35.168Z,16.26
2022-08-03T18:22:02.983Z,16.26
2022-08-03T18:24:59.731Z,16.16
2022-08-03T18:28:02.834Z,16.12
2022-08-03T18:31:06.802Z,16.12
2022-08-03T18:34:18.817Z,16.14
2022-08-03T18:37:32.658Z,16.20
2022-08-03T18:40:54.050Z,16.22
2022-08-03T18:44:08.945Z,16.18
2022-08-03T18:47:52.975Z,16.13
2022-08-03T18:51:11.059Z,16.10
2022-08-03T18:55:02.309Z,16.03
2022-08-03T18:58:15.977Z,16.01
2022-08-03T19:02:00.185Z,15.92
2022-08-03T19:04:48.074Z,15.86
2022-08-03T19:07:59.990Z,15.85
2022-08-03T19:11:06.016Z,15.79
2022-08-03T19:14:11.463Z,15.80
2022-08-03T19:17:14.292Z,15.70
2022-08-03T19:20:25.469Z,15.66
2022-08-03T19:23:33.949Z,15.60
2022-08-03T19:26:41.395Z,15.56
2022-08-03T19:29:59.851Z,15.58
2022-08-03T19:33:14.431Z,15.46
2022-08-03T19:36:16.430Z,15.45
2022-08-03T19:39:27.557Z,15.37
2022-08-03T19:42:32.120Z,15.19
2022-08-03T19:46:05.839Z,15.07
2022-08-03T19:49:15.081Z,14.98
2022-08-03T19:52:20.634Z,14.92
2022-08-03T19:55:28.379Z,14.86
2022-08-03T19:58:34.214Z,14.76
2022-08-03T20:01:50.226Z,14.72
2022-08-03T20:04:53.921Z,14.64
2022-08-03T20:08:00.030Z,14.57
2022-08-03T20:11:02.184Z,14.52
2022-08-03T20:14:05.280Z,14.46
2022-08-03T20:17:09.725Z,14.41
2022-08-03T20:20:11.759Z,14.46
2022-08-03T20:23:18.126Z,14.41
2022-08-03T20:26:20.313Z,14.38
2022-08-03T20:30:05.273Z,14.34
2022-08-03T20:32:50.126Z,14.26
2022-08-03T20:35:51.862Z,14.31
2022-08-03T20:38:57.693Z,14.32
2022-08-03T20:42:01.172Z,14.41
2022-08-03T20:45:06.314Z,14.42
2022-08-03T20:48:15.996Z,14.43
2022-08-03T20:51:20.030Z,14.42
2022-08-03T20:54:31.546Z,14.45
2022-08-03T20:57:35.585Z,14.50
2022-08-03T21:00:42.658Z,14.57
2022-08-03T21:03:52.359Z,14.52
2022-08-03T21:07:02.230Z,14.54
2022-08-03T21:10:05.678Z,14.53
2022-08-03T21:13:25.109Z,14.58
2022-08-03T21:16:28.784Z,14.58
2022-08-03T21:19:31.835Z,14.62
2022-08-03T21:22:35.562Z,14.61
2022-08-03T21:25:40.282Z,14.58
2022-08-03T21:28:42.342Z,14.54
2022-08-03T21:31:44.217Z,14.54
2022-08-03T21:34:46.339Z,14.53
2022-08-03T21:38:08.783Z,14.65
2022-08-03T21:41:10.783Z,14.78
2022-08-03T21:44:12.614Z,14.71
2022-08-03T21:47:14.903Z,14.66
2022-08-03T21:50:16.562Z,14.60
2022-08-03T21:53:18.536Z,14.56
2022-08-03T21:56:22.081Z,14.61
2022-08-03T21:59:24.601Z,14.62
2022-08-03T22:02:32.034Z,14.64
2022-08-03T22:05:43.960Z,14.60
2022-08-03T22:08:47.063Z,14.60
2022-08-03T22:11:50.918Z,14.54
2022-08-03T22:15:01.027Z,14.53
2022-08-03T22:18:03.978Z,14.54
2022-08-03T22:21:07.904Z,14.57
2022-08-03T22:24:09.820Z,14.53
2022-08-03T22:27:31.451Z,14.52
2022-08-03T22:30:33.404Z,14.44
2022-08-03T22:33:36.632Z,14.39
2022-08-03T22:36:40.054Z,14.32
2022-08-03T22:39:43.658Z,14.17
2022-08-03T22:42:46.028Z,14.00
2022-08-03T22:46:09.954Z,13.97
2022-08-03T22:49:09.915Z,13.90
2022-08-03T22:52:12.306Z,13.83
2022-08-03T22:55:18.819Z,13.75
2022-08-03T22:58:26.757Z,13.70
2022-08-03T23:01:28.550Z,13.61
2022-08-03T23:04:32.310Z,13.48
2022-08-03T23:07:37.271Z,13.45
2022-08-03T23:10:42.611Z,13.42
2022-08-03T23:13:53.348Z,13.38
2022-08-03T23:16:55.568Z,13.31
2022-08-03T23:20:04.908Z,13.28
2022-08-03T23:23:08.703Z,13.27
2022-08-03T23:26:10.920Z,13.25
2022-08-03T23:29:15.443Z,13.27
2022-08-03T23:32:20.551Z,13.28
2022-08-03T23:36:29.157Z,13.27
2022-08-03T23:39:03.883Z,13.22
2022-08-03T23:42:06.305Z,13.18
2022-08-03T23:45:08.423Z,13.17
2022-08-03T23:48:10.134Z,13.12
2022-08-03T23:51:24.177Z,13.13
2022-08-03T23:54:34.555Z,13.16
2022-08-03T23:58:10.609Z,13.12
